sensor_id;sensor_type;location;lat;lon;timestamp;P1;durP1;ratioP1;P2;durP2;ratioP2
27704;SDS011;15109;50.992;6.918;2022-10-04T00:00:37;3.28;;;1.50;;
27704;SDS011;15109;50.992;6.918;2022-10-04T00:04:05;3.20;;;1.23;;
27704;SDS011;15109;50.992;6.918;2022-10-04T00:07:33;2.97;;;1.30;;
27704;SDS011;15109;50.992;6.918;2022-10-04T00:11:05;2.83;;;1.65;;
27704;SDS011;15109;50.992;6.918;2022-10-04T00:14:36;2.47;;;1.45;;
27704;SDS011;15109;50.992;6.918;2022-10-04T00:21:32;3.42;;;1.80;;
27704;SDS011;15109;50.992;6.918;2022-10-04T00:25:16;4.07;;;1.83;;
27704;SDS011;15109;50.992;6.918;2022-10-04T00:28:43;3.65;;;1.70;;
27704;SDS011;15109;50.992;6.918;2022-10-04T00:45:52;4.85;;;2.35;;
27704;SDS011;15109;50.992;6.918;2022-10-04T00:49:19;3.22;;;1.88;;
27704;SDS011;15109;50.992;6.918;2022-10-04T00:52:44;6.45;;;2.10;;
27704;SDS011;15109;50.992;6.918;2022-10-04T00:56:33;3.08;;;1.70;;
27704;SDS011;15109;50.992;6.918;2022-10-04T00:59:56;3.05;;;1.95;;
27704;SDS011;15109;50.992;6.918;2022-10-04T01:03:33;4.88;;;1.65;;
27704;SDS011;15109;50.992;6.918;2022-10-04T01:06:58;2.88;;;1.45;;
27704;SDS011;15109;50.992;6.918;2022-10-04T01:10:35;2.80;;;1.35;;
27704;SDS011;15109;50.992;6.918;2022-10-04T01:13:57;2.85;;;1.30;;
27704;SDS011;15109;50.992;6.918;2022-10-04T01:17:21;2.92;;;1.65;;
27704;SDS011;15109;50.992;6.918;2022-10-04T01:20:52;3.13;;;1.48;;
27704;SDS011;15109;50.992;6.918;2022-10-04T01:24:49;16.15;;;2.35;;
27704;SDS011;15109;50.992;6.918;2022-10-04T01:28:10;3.47;;;0.98;;
27704;SDS011;15109;50.992;6.918;2022-10-04T01:31:32;15.65;;;1.33;;
27704;SDS011;15109;50.992;6.918;2022-10-04T01:34:55;3.85;;;1.92;;
27704;SDS011;15109;50.992;6.918;2022-10-04T01:38:16;6.85;;;1.17;;
27704;SDS011;15109;50.992;6.918;2022-10-04T01:48:31;2.90;;;1.52;;
27704;SDS011;15109;50.992;6.918;2022-10-04T01:52:12;4.45;;;2.08;;
27704;SDS011;15109;50.992;6.918;2022-10-04T01:55:37;2.25;;;1.50;;
27704;SDS011;15109;50.992;6.918;2022-10-04T01:59:02;2.55;;;1.42;;
27704;SDS011;15109;50.992;6.918;2022-10-04T02:06:17;3.55;;;1.65;;
27704;SDS011;15109;50.992;6.918;2022-10-04T02:09:42;3.13;;;1.80;;
27704;SDS011;15109;50.992;6.918;2022-10-04T02:13:09;2.75;;;1.40;;
27704;SDS011;15109;50.992;6.918;2022-10-04T02:16:34;3.00;;;1.58;;
27704;SDS011;15109;50.992;6.918;2022-10-04T02:19:59;3.50;;;1.63;;
27704;SDS011;15109;50.992;6.918;2022-10-04T02:23:22;2.78;;;1.30;;
27704;SDS011;15109;50.992;6.918;2022-10-04T02:26:48;2.85;;;1.58;;
27704;SDS011;15109;50.992;6.918;2022-10-04T02:30:12;5.50;;;2.10;;
27704;SDS011;15109;50.992;6.918;2022-10-04T02:33:37;5.78;;;1.77;;
27704;SDS011;15109;50.992;6.918;2022-10-04T02:37:03;2.35;;;1.38;;
27704;SDS011;15109;50.992;6.918;2022-10-04T02:40:33;1.95;;;1.33;;
27704;SDS011;15109;50.992;6.918;2022-10-04T02:44:17;3.20;;;1.65;;
27704;SDS011;15109;50.992;6.918;2022-10-04T02:47:44;2.95;;;1.50;;
27704;SDS011;15109;50.992;6.918;2022-10-04T02:51:16;3.55;;;1.60;;
27704;SDS011;15109;50.992;6.918;2022-10-04T02:54:49;2.42;;;0.95;;
27704;SDS011;15109;50.992;6.918;2022-10-04T02:58:18;2.33;;;1.60;;
27704;SDS011;15109;50.992;6.918;2022-10-04T03:01:52;7.18;;;1.98;;
27704;SDS011;15109;50.992;6.918;2022-10-04T03:05:13;3.85;;;1.73;;
27704;SDS011;15109;50.992;6.918;2022-10-04T03:08:46;8.00;;;1.27;;
27704;SDS011;15109;50.992;6.918;2022-10-04T03:12:09;1.65;;;1.00;;
27704;SDS011;15109;50.992;6.918;2022-10-04T03:15:32;2.17;;;1.35;;
27704;SDS011;15109;50.992;6.918;2022-10-04T03:18:55;3.13;;;1.70;;
27704;SDS011;15109;50.992;6.918;2022-10-04T03:22:17;2.13;;;1.40;;
27704;SDS011;15109;50.992;6.918;2022-10-04T03:25:48;2.35;;;1.05;;
27704;SDS011;15109;50.992;6.918;2022-10-04T03:29:19;3.60;;;2.20;;
27704;SDS011;15109;50.992;6.918;2022-10-04T03:32:43;4.78;;;2.03;;
27704;SDS011;15109;50.992;6.918;2022-10-04T03:36:04;4.75;;;1.45;;
27704;SDS011;15109;50.992;6.918;2022-10-04T03:39:35;2.50;;;1.55;;
27704;SDS011;15109;50.992;6.918;2022-10-04T03:42:59;4.53;;;1.48;;
27704;SDS011;15109;50.992;6.918;2022-10-04T03:46:23;3.05;;;1.35;;
27704;SDS011;15109;50.992;6.918;2022-10-04T03:49:45;2.60;;;1.70;;
27704;SDS011;15109;50.992;6.918;2022-10-04T03:53:11;1.63;;;0.98;;
27704;SDS011;15109;50.992;6.918;2022-10-04T03:56:41;2.22;;;1.48;;
27704;SDS011;15109;50.992;6.918;2022-10-04T04:00:03;4.28;;;1.83;;
27704;SDS011;15109;50.992;6.918;2022-10-04T04:03:35;2.97;;;1.85;;
27704;SDS011;15109;50.992;6.918;2022-10-04T04:07:13;1.35;;;1.00;;
27704;SDS011;15109;50.992;6.918;2022-10-04T04:10:46;3.78;;;2.08;;
27704;SDS011;15109;50.992;6.918;2022-10-04T04:14:11;2.53;;;1.52;;
27704;SDS011;15109;50.992;6.918;2022-10-04T04:17:36;2.30;;;1.58;;
27704;SDS011;15109;50.992;6.918;2022-10-04T04:21:01;3.08;;;1.40;;
27704;SDS011;15109;50.992;6.918;2022-10-04T04:24:25;2.55;;;1.52;;
27704;SDS011;15109;50.992;6.918;2022-10-04T04:27:52;5.63;;;1.88;;
27704;SDS011;15109;50.992;6.918;2022-10-04T04:31:39;1.80;;;1.23;;
27704;SDS011;15109;50.992;6.918;2022-10-04T04:35:05;3.25;;;1.73;;
27704;SDS011;15109;50.992;6.918;2022-10-04T04:38:39;2.60;;;1.30;;
27704;SDS011;15109;50.992;6.918;2022-10-04T04:42:26;1.90;;;1.48;;
27704;SDS011;15109;50.992;6.918;2022-10-04T04:45:52;2.88;;;1.35;;
27704;SDS011;15109;50.992;6.918;2022-10-04T04:49:14;6.38;;;2.00;;
27704;SDS011;15109;50.992;6.918;2022-10-04T04:52:38;3.28;;;1.77;;
27704;SDS011;15109;50.992;6.918;2022-10-04T04:56:01;4.82;;;1.92;;
27704;SDS011;15109;50.992;6.918;2022-10-04T04:59:24;2.67;;;1.40;;
27704;SDS011;15109;50.992;6.918;2022-10-04T05:02:57;3.03;;;1.60;;
27704;SDS011;15109;50.992;6.918;2022-10-04T05:06:24;1.98;;;1.27;;
27704;SDS011;15109;50.992;6.918;2022-10-04T05:09:47;3.25;;;1.77;;
27704;SDS011;15109;50.992;6.918;2022-10-04T05:13:08;3.40;;;2.05;;
27704;SDS011;15109;50.992;6.918;2022-10-04T05:16:34;4.05;;;1.77;;
27704;SDS011;15109;50.992;6.918;2022-10-04T05:20:01;2.03;;;1.30;;
27704;SDS011;15109;50.992;6.918;2022-10-04T05:23:23;2.63;;;1.77;;
27704;SDS011;15109;50.992;6.918;2022-10-04T05:26:45;2.72;;;1.52;;
27704;SDS011;15109;50.992;6.918;2022-10-04T05:30:15;2.25;;;1.45;;
27704;SDS011;15109;50.992;6.918;2022-10-04T05:33:51;4.45;;;1.98;;
27704;SDS011;15109;50.992;6.918;2022-10-04T05:40:56;3.05;;;1.83;;
27704;SDS011;15109;50.992;6.918;2022-10-04T05:44:29;7.63;;;2.33;;
27704;SDS011;15109;50.992;6.918;2022-10-04T05:51:29;4.53;;;2.20;;
27704;SDS011;15109;50.992;6.918;2022-10-04T06:14:15;3.13;;;2.00;;
27704;SDS011;15109;50.992;6.918;2022-10-04T06:25:25;3.90;;;2.20;;
27704;SDS011;15109;50.992;6.918;2022-10-04T06:29:02;3.10;;;2.08;;
27704;SDS011;15109;50.992;6.918;2022-10-04T06:40:00;7.72;;;2.45;;
27704;SDS011;15109;50.992;6.918;2022-10-04T06:51:56;3.65;;;1.98;;
27704;SDS011;15109;50.992;6.918;2022-10-04T06:58:50;3.20;;;1.98;;
27704;SDS011;15109;50.992;6.918;2022-10-04T07:02:28;4.43;;;2.00;;
27704;SDS011;15109;50.992;6.918;2022-10-04T07:05:59;2.95;;;1.65;;
27704;SDS011;15109;50.992;6.918;2022-10-04T07:09:24;2.78;;;1.70;;
27704;SDS011;15109;50.992;6.918;2022-10-04T07:16:45;4.50;;;1.50;;
27704;SDS011;15109;50.992;6.918;2022-10-04T07:20:18;6.55;;;2.42;;
27704;SDS011;15109;50.992;6.918;2022-10-04T07:23:45;2.40;;;1.67;;
27704;SDS011;15109;50.992;6.918;2022-10-04T07:27:12;2.85;;;1.63;;
27704;SDS011;15109;50.992;6.918;2022-10-04T07:30:38;4.03;;;2.22;;
27704;SDS011;15109;50.992;6.918;2022-10-04T07:34:09;2.35;;;1.77;;
27704;SDS011;15109;50.992;6.918;2022-10-04T07:37:43;5.72;;;2.22;;
27704;SDS011;15109;50.992;6.918;2022-10-04T07:44:53;4.15;;;2.22;;
27704;SDS011;15109;50.992;6.918;2022-10-04T07:48:23;4.07;;;2.38;;
27704;SDS011;15109;50.992;6.918;2022-10-04T07:58:51;5.80;;;2.33;;
27704;SDS011;15109;50.992;6.918;2022-10-04T08:10:07;5.15;;;2.70;;
27704;SDS011;15109;50.992;6.918;2022-10-04T08:13:58;6.88;;;1.95;;
27704;SDS011;15109;50.992;6.918;2022-10-04T08:17:38;7.10;;;2.33;;
27704;SDS011;15109;50.992;6.918;2022-10-04T08:21:07;4.15;;;2.20;;
27704;SDS011;15109;50.992;6.918;2022-10-04T08:24:39;3.65;;;1.80;;
27704;SDS011;15109;50.992;6.918;2022-10-04T08:35:41;3.95;;;2.20;;
27704;SDS011;15109;50.992;6.918;2022-10-04T08:39:20;17.05;;;2.33;;
27704;SDS011;15109;50.992;6.918;2022-10-04T08:42:50;4.95;;;2.42;;
27704;SDS011;15109;50.992;6.918;2022-10-04T08:46:49;6.18;;;2.42;;
27704;SDS011;15109;50.992;6.918;2022-10-04T08:54:04;3.50;;;2.10;;
27704;SDS011;15109;50.992;6.918;2022-10-04T08:57:44;5.90;;;2.60;;
27704;SDS011;15109;50.992;6.918;2022-10-04T09:20:00;4.00;;;1.92;;
27704;SDS011;15109;50.992;6.918;2022-10-04T09:42:26;4.55;;;2.17;;
27704;SDS011;15109;50.992;6.918;2022-10-04T09:53:19;3.30;;;1.42;;
27704;SDS011;15109;50.992;6.918;2022-10-04T10:00:45;8.30;;;1.90;;
27704;SDS011;15109;50.992;6.918;2022-10-04T10:19:33;4.28;;;1.85;;
27704;SDS011;15109;50.992;6.918;2022-10-04T10:46:01;2.80;;;1.27;;
27704;SDS011;15109;50.992;6.918;2022-10-04T11:04:21;3.13;;;1.38;;
27704;SDS011;15109;50.992;6.918;2022-10-04T11:11:39;1.30;;;0.93;;
27704;SDS011;15109;50.992;6.918;2022-10-04T11:15:38;2.08;;;1.30;;
27704;SDS011;15109;50.992;6.918;2022-10-04T11:26:59;0.88;;;0.70;;
27704;SDS011;15109;50.992;6.918;2022-10-04T11:39:10;1.73;;;0.90;;
27704;SDS011;15109;50.992;6.918;2022-10-04T12:27:16;1.88;;;1.10;;
27704;SDS011;15109;50.992;6.918;2022-10-04T12:34:18;1.85;;;1.08;;
27704;SDS011;15109;50.992;6.918;2022-10-04T12:49:07;1.50;;;1.00;;
27704;SDS011;15109;50.992;6.918;2022-10-04T13:00:35;2.78;;;0.95;;
27704;SDS011;15109;50.992;6.918;2022-10-04T13:04:05;2.67;;;1.08;;
27704;SDS011;15109;50.992;6.918;2022-10-04T13:15:18;0.73;;;0.60;;
27704;SDS011;15109;50.992;6.918;2022-10-04T13:26:36;2.35;;;0.82;;
27704;SDS011;15109;50.992;6.918;2022-10-04T13:30:24;5.88;;;1.40;;
27704;SDS011;15109;50.992;6.918;2022-10-04T13:37:31;2.40;;;1.15;;
27704;SDS011;15109;50.992;6.918;2022-10-04T13:51:31;2.22;;;1.17;;
27704;SDS011;15109;50.992;6.918;2022-10-04T14:37:00;0.88;;;0.73;;
27704;SDS011;15109;50.992;6.918;2022-10-04T15:00:09;2.13;;;1.00;;
27704;SDS011;15109;50.992;6.918;2022-10-04T15:07:26;1.40;;;0.98;;
27704;SDS011;15109;50.992;6.918;2022-10-04T15:10:58;1.60;;;0.98;;
27704;SDS011;15109;50.992;6.918;2022-10-04T15:14:29;0.93;;;0.68;;
27704;SDS011;15109;50.992;6.918;2022-10-04T15:18:03;2.28;;;1.13;;
27704;SDS011;15109;50.992;6.918;2022-10-04T15:24:59;1.60;;;0.90;;
27704;SDS011;15109;50.992;6.918;2022-10-04T15:50:03;0.55;;;0.52;;
27704;SDS011;15109;50.992;6.918;2022-10-04T15:57:25;1.42;;;0.80;;
27704;SDS011;15109;50.992;6.918;2022-10-04T16:04:40;1.00;;;0.65;;
27704;SDS011;15109;50.992;6.918;2022-10-04T16:15:10;1.92;;;1.10;;
27704;SDS011;15109;50.992;6.918;2022-10-04T16:22:32;2.10;;;1.00;;
27704;SDS011;15109;50.992;6.918;2022-10-04T16:25:55;1.73;;;0.90;;
27704;SDS011;15109;50.992;6.918;2022-10-04T16:29:27;1.58;;;1.02;;
27704;SDS011;15109;50.992;6.918;2022-10-04T16:33:39;1.48;;;0.88;;
27704;SDS011;15109;50.992;6.918;2022-10-04T16:36:57;1.65;;;0.90;;
27704;SDS011;15109;50.992;6.918;2022-10-04T16:44:20;1.52;;;0.95;;
27704;SDS011;15109;50.992;6.918;2022-10-04T16:47:55;1.63;;;0.88;;
27704;SDS011;15109;50.992;6.918;2022-10-04T16:55:16;1.27;;;0.77;;
27704;SDS011;15109;50.992;6.918;2022-10-04T16:59:11;2.13;;;1.00;;
27704;SDS011;15109;50.992;6.918;2022-10-04T17:06:22;3.70;;;1.27;;
27704;SDS011;15109;50.992;6.918;2022-10-04T17:17:16;1.60;;;1.10;;
27704;SDS011;15109;50.992;6.918;2022-10-04T17:20:53;1.80;;;1.00;;
27704;SDS011;15109;50.992;6.918;2022-10-04T17:27:51;2.38;;;1.25;;
27704;SDS011;15109;50.992;6.918;2022-10-04T17:38:40;2.15;;;0.88;;
27704;SDS011;15109;50.992;6.918;2022-10-04T17:42:28;1.85;;;1.25;;
27704;SDS011;15109;50.992;6.918;2022-10-04T17:53:30;3.58;;;2.03;;
27704;SDS011;15109;50.992;6.918;2022-10-04T18:04:47;4.90;;;2.40;;
27704;SDS011;15109;50.992;6.918;2022-10-04T18:11:47;6.93;;;3.58;;
27704;SDS011;15109;50.992;6.918;2022-10-04T18:18:53;10.90;;;4.32;;
27704;SDS011;15109;50.992;6.918;2022-10-04T18:22:15;12.13;;;6.10;;
27704;SDS011;15109;50.992;6.918;2022-10-04T18:25:38;12.77;;;5.28;;
27704;SDS011;15109;50.992;6.918;2022-10-04T18:29:01;13.85;;;5.00;;
27704;SDS011;15109;50.992;6.918;2022-10-04T18:35:49;6.55;;;3.42;;
27704;SDS011;15109;50.992;6.918;2022-10-04T18:42:34;4.68;;;2.95;;
27704;SDS011;15109;50.992;6.918;2022-10-04T18:49:28;6.32;;;3.17;;
27704;SDS011;15109;50.992;6.918;2022-10-04T18:53:10;11.63;;;4.82;;
27704;SDS011;15109;50.992;6.918;2022-10-04T18:56:48;6.65;;;3.67;;
27704;SDS011;15109;50.992;6.918;2022-10-04T19:00:17;8.38;;;4.65;;
27704;SDS011;15109;50.992;6.918;2022-10-04T19:04:02;5.70;;;3.05;;
27704;SDS011;15109;50.992;6.918;2022-10-04T19:11:19;9.20;;;3.80;;
27704;SDS011;15109;50.992;6.918;2022-10-04T19:22:07;6.32;;;3.33;;
27704;SDS011;15109;50.992;6.918;2022-10-04T19:25:36;4.78;;;2.92;;
27704;SDS011;15109;50.992;6.918;2022-10-04T19:43:46;6.97;;;3.42;;
27704;SDS011;15109;50.992;6.918;2022-10-04T19:50:39;7.82;;;3.20;;
27704;SDS011;15109;50.992;6.918;2022-10-04T19:54:09;8.13;;;3.78;;
27704;SDS011;15109;50.992;6.918;2022-10-04T19:57:35;4.28;;;2.47;;
27704;SDS011;15109;50.992;6.918;2022-10-04T20:00:58;6.05;;;3.58;;
27704;SDS011;15109;50.992;6.918;2022-10-04T20:04:19;6.25;;;3.20;;
27704;SDS011;15109;50.992;6.918;2022-10-04T20:07:56;3.50;;;2.42;;
27704;SDS011;15109;50.992;6.918;2022-10-04T20:11:25;3.88;;;2.25;;
27704;SDS011;15109;50.992;6.918;2022-10-04T20:14:49;5.43;;;2.60;;
27704;SDS011;15109;50.992;6.918;2022-10-04T20:21:53;6.68;;;3.60;;
27704;SDS011;15109;50.992;6.918;2022-10-04T20:29:02;3.55;;;2.03;;
27704;SDS011;15109;50.992;6.918;2022-10-04T20:46:34;3.47;;;1.55;;
27704;SDS011;15109;50.992;6.918;2022-10-04T20:49:57;1.77;;;1.20;;
27704;SDS011;15109;50.992;6.918;2022-10-04T20:53:25;3.58;;;1.65;;
27704;SDS011;15109;50.992;6.918;2022-10-04T20:56:50;2.35;;;1.20;;
27704;SDS011;15109;50.992;6.918;2022-10-04T21:00:16;2.65;;;1.50;;
27704;SDS011;15109;50.992;6.918;2022-10-04T21:03:38;1.45;;;1.05;;
27704;SDS011;15109;50.992;6.918;2022-10-04T21:10:20;3.20;;;1.25;;
27704;SDS011;15109;50.992;6.918;2022-10-04T21:13:51;2.05;;;1.13;;
27704;SDS011;15109;50.992;6.918;2022-10-04T21:20:49;3.28;;;1.33;;
27704;SDS011;15109;50.992;6.918;2022-10-04T21:28:20;1.77;;;1.02;;
27704;SDS011;15109;50.992;6.918;2022-10-04T21:31:42;2.35;;;1.33;;
27704;SDS011;15109;50.992;6.918;2022-10-04T21:35:03;3.47;;;1.73;;
27704;SDS011;15109;50.992;6.918;2022-10-04T21:38:25;2.38;;;1.35;;
27704;SDS011;15109;50.992;6.918;2022-10-04T21:41:46;1.60;;;0.90;;
27704;SDS011;15109;50.992;6.918;2022-10-04T21:45:08;2.30;;;1.30;;
27704;SDS011;15109;50.992;6.918;2022-10-04T21:48:29;2.38;;;1.25;;
27704;SDS011;15109;50.992;6.918;2022-10-04T21:51:50;4.07;;;1.90;;
27704;SDS011;15109;50.992;6.918;2022-10-04T21:55:11;3.05;;;1.80;;
27704;SDS011;15109;50.992;6.918;2022-10-04T21:58:32;2.20;;;1.55;;
27704;SDS011;15109;50.992;6.918;2022-10-04T22:01:53;2.72;;;1.77;;
27704;SDS011;15109;50.992;6.918;2022-10-04T22:05:14;2.67;;;1.08;;
27704;SDS011;15109;50.992;6.918;2022-10-04T22:08:35;2.22;;;1.33;;
27704;SDS011;15109;50.992;6.918;2022-10-04T22:11:56;4.15;;;1.67;;
27704;SDS011;15109;50.992;6.918;2022-10-04T22:15:18;1.80;;;1.25;;
27704;SDS011;15109;50.992;6.918;2022-10-04T22:18:39;2.60;;;1.40;;
27704;SDS011;15109;50.992;6.918;2022-10-04T22:22:00;1.95;;;1.23;;
27704;SDS011;15109;50.992;6.918;2022-10-04T22:25:21;3.15;;;1.70;;
27704;SDS011;15109;50.992;6.918;2022-10-04T22:28:48;2.95;;;1.70;;
27704;SDS011;15109;50.992;6.918;2022-10-04T22:32:18;2.80;;;1.73;;
27704;SDS011;15109;50.992;6.918;2022-10-04T22:35:43;3.47;;;1.88;;
27704;SDS011;15109;50.992;6.918;2022-10-04T22:42:29;3.85;;;1.90;;
27704;SDS011;15109;50.992;6.918;2022-10-04T22:45:51;2.08;;;1.10;;
27704;SDS011;15109;50.992;6.918;2022-10-04T22:49:14;4.75;;;1.42;;
27704;SDS011;15109;50.992;6.918;2022-10-04T22:52:36;3.85;;;2.05;;
27704;SDS011;15109;50.992;6.918;2022-10-04T22:55:57;3.70;;;1.55;;
27704;SDS011;15109;50.992;6.918;2022-10-04T22:59:20;3.03;;;1.95;;
27704;SDS011;15109;50.992;6.918;2022-10-04T23:02:46;2.33;;;1.25;;
27704;SDS011;15109;50.992;6.918;2022-10-04T23:06:08;6.15;;;2.22;;
27704;SDS011;15109;50.992;6.918;2022-10-04T23:09:33;3.25;;;1.48;;
27704;SDS011;15109;50.992;6.918;2022-10-04T23:12:54;2.85;;;1.50;;
27704;SDS011;15109;50.992;6.918;2022-10-04T23:16:20;2.45;;;1.45;;
27704;SDS011;15109;50.992;6.918;2022-10-04T23:19:42;4.78;;;2.13;;
27704;SDS011;15109;50.992;6.918;2022-10-04T23:23:04;4.72;;;1.45;;
27704;SDS011;15109;50.992;6.918;2022-10-04T23:26:33;1.83;;;1.45;;
27704;SDS011;15109;50.992;6.918;2022-10-04T23:30:02;3.60;;;1.92;;
27704;SDS011;15109;50.992;6.918;2022-10-04T23:33:23;3.08;;;1.65;;
27704;SDS011;15109;50.992;6.918;2022-10-04T23:36:45;2.47;;;1.58;;
27704;SDS011;15109;50.992;6.918;2022-10-04T23:40:08;4.25;;;2.33;;
27704;SDS011;15109;50.992;6.918;2022-10-04T23:43:29;4.28;;;2.25;;
27704;SDS011;15109;50.992;6.918;2022-10-04T23:46:51;1.98;;;1.20;;
27704;SDS011;15109;50.992;6.918;2022-10-04T23:50:28;2.60;;;1.58;;
27704;SDS011;15109;50.992;6.918;2022-10-04T23:53:51;4.88;;;2.30;;
27704;SDS011;15109;50.992;6.918;2022-10-04T23:57:14;2.28;;;1.50;;
